sensor_id;sensor_type;location;lat;lon;timestamp;noise_LAeq;noise_LA_min;noise_LA_max;noise_LA01;noise_LA95
37833;Laerm;23678;48.778;9.160;2023-02-03T00:00:24;38.04;33.44;43.77;;
37833;Laerm;23678;48.778;9.160;2023-02-03T00:02:52;37.38;31.68;40.62;;
37833;Laerm;23678;48.778;9.160;2023-02-03T00:05:18;37.49;32.35;40.89;;
37833;Laerm;23678;48.778;9.160;2023-02-03T00:07:43;37.54;32.00;41.61;;
37833;Laerm;23678;48.778;9.160;2023-02-03T00:10:08;37.31;32.35;40.33;;
37833;Laerm;23678;48.778;9.160;2023-02-03T00:12:34;37.23;31.68;40.33;;
37833;Laerm;23678;48.778;9.160;2023-02-03T00:14:59;37.48;32.35;43.24;;
37833;Laerm;23678;48.778;9.160;2023-02-03T00:17:25;37.68;32.93;50.98;;
37833;Laerm;23678;48.778;9.160;2023-02-03T00:19:50;38.02;32.93;44.73;;
37833;Laerm;23678;48.778;9.160;2023-02-03T00:22:15;37.48;32.93;41.19;;
37833;Laerm;23678;48.778;9.160;2023-02-03T00:24:40;37.55;32.35;41.06;;
37833;Laerm;23678;48.778;9.160;2023-02-03T00:27:06;37.41;32.35;42.09;;
37833;Laerm;23678;48.778;9.160;2023-02-03T00:29:31;37.52;32.93;44.43;;
37833;Laerm;23678;48.778;9.160;2023-02-03T00:31:56;38.82;32.93;50.97;;
37833;Laerm;23678;48.778;9.160;2023-02-03T00:34:26;37.52;32.35;43.54;;
37833;Laerm;23678;48.778;9.160;2023-02-03T00:36:51;37.30;32.93;40.13;;
37833;Laerm;23678;48.778;9.160;2023-02-03T00:39:17;37.26;29.92;40.80;;
37833;Laerm;23678;48.778;9.160;2023-02-03T00:41:42;37.60;30.89;48.39;;
37833;Laerm;23678;48.778;9.160;2023-02-03T00:44:07;37.73;32.35;44.01;;
37833;Laerm;23678;48.778;9.160;2023-02-03T00:46:33;37.26;30.89;39.81;;
37833;Laerm;23678;48.778;9.160;2023-02-03T00:49:00;37.45;31.68;41.68;;
37833;Laerm;23678;48.778;9.160;2023-02-03T00:51:25;37.36;32.93;40.03;;
37833;Laerm;23678;48.778;9.160;2023-02-03T00:53:51;37.56;32.93;41.38;;
37833;Laerm;23678;48.778;9.160;2023-02-03T00:56:16;38.28;31.68;46.91;;
37833;Laerm;23678;48.778;9.160;2023-02-03T00:58:41;37.38;32.35;42.41;;
37833;Laerm;23678;48.778;9.160;2023-02-03T01:01:07;38.44;32.93;49.93;;
37833;Laerm;23678;48.778;9.160;2023-02-03T01:03:32;37.65;30.89;41.68;;
37833;Laerm;23678;48.778;9.160;2023-02-03T01:06:11;37.60;31.68;43.14;;
37833;Laerm;23678;48.778;9.160;2023-02-03T01:08:36;37.39;30.89;41.38;;
37833;Laerm;23678;48.778;9.160;2023-02-03T01:11:06;37.86;32.93;44.62;;
37833;Laerm;23678;48.778;9.160;2023-02-03T01:13:31;37.53;32.93;41.30;;
37833;Laerm;23678;48.778;9.160;2023-02-03T01:15:56;37.39;31.68;41.82;;
37833;Laerm;23678;48.778;9.160;2023-02-03T01:18:22;37.32;32.93;41.75;;
37833;Laerm;23678;48.778;9.160;2023-02-03T01:20:47;37.49;31.68;45.69;;
37833;Laerm;23678;48.778;9.160;2023-02-03T01:23:12;37.96;32.93;44.80;;
37833;Laerm;23678;48.778;9.160;2023-02-03T01:25:38;37.27;31.68;39.92;;
37833;Laerm;23678;48.778;9.160;2023-02-03T01:28:03;37.18;32.35;39.70;;
37833;Laerm;23678;48.778;9.160;2023-02-03T01:30:30;37.36;33.44;40.43;;
37833;Laerm;23678;48.778;9.160;2023-02-03T01:32:55;37.26;32.93;40.71;;
37833;Laerm;23678;48.778;9.160;2023-02-03T01:35:20;39.19;32.35;49.91;;
37833;Laerm;23678;48.778;9.160;2023-02-03T01:37:45;37.20;31.68;40.79;;
37833;Laerm;23678;48.778;9.160;2023-02-03T01:40:11;37.47;32.93;41.61;;
37833;Laerm;23678;48.778;9.160;2023-02-03T01:42:36;37.20;32.35;40.62;;
37833;Laerm;23678;48.778;9.160;2023-02-03T01:45:02;37.16;30.89;39.81;;
37833;Laerm;23678;48.778;9.160;2023-02-03T01:47:34;38.48;32.35;49.03;;
37833;Laerm;23678;48.778;9.160;2023-02-03T01:52:35;37.19;30.89;40.80;;
37833;Laerm;23678;48.778;9.160;2023-02-03T01:55:01;37.24;32.35;40.13;;
37833;Laerm;23678;48.778;9.160;2023-02-03T01:57:32;37.21;32.35;40.03;;
37833;Laerm;23678;48.778;9.160;2023-02-03T01:59:58;37.17;32.35;39.70;;
37833;Laerm;23678;48.778;9.160;2023-02-03T02:02:25;37.24;32.35;40.43;;
37833;Laerm;23678;48.778;9.160;2023-02-03T02:05:13;37.20;31.68;40.03;;
37833;Laerm;23678;48.778;9.160;2023-02-03T02:07:36;37.19;32.93;40.03;;
37833;Laerm;23678;48.778;9.160;2023-02-03T02:10:02;37.21;32.35;41.46;;
37833;Laerm;23678;48.778;9.160;2023-02-03T02:12:28;37.30;29.92;40.53;;
37833;Laerm;23678;48.778;9.160;2023-02-03T02:14:53;37.23;30.89;40.03;;
37833;Laerm;23678;48.778;9.160;2023-02-03T02:30:37;37.47;32.35;43.09;;
37833;Laerm;23678;48.778;9.160;2023-02-03T02:41:09;37.21;32.35;40.23;;
37833;Laerm;23678;48.778;9.160;2023-02-03T02:43:57;37.29;28.67;40.23;;
37833;Laerm;23678;48.778;9.160;2023-02-03T02:46:33;38.32;31.68;51.32;;
37833;Laerm;23678;48.778;9.160;2023-02-03T02:49:02;37.29;30.54;40.13;;
37833;Laerm;23678;48.778;9.160;2023-02-03T02:51:30;38.45;32.93;48.92;;
37833;Laerm;23678;48.778;9.160;2023-02-03T02:53:58;37.52;32.93;41.22;;
37833;Laerm;23678;48.778;9.160;2023-02-03T02:56:24;37.24;31.68;40.80;;
37833;Laerm;23678;48.778;9.160;2023-02-03T02:58:50;37.39;32.93;40.53;;
37833;Laerm;23678;48.778;9.160;2023-02-03T03:01:17;37.44;30.89;41.22;;
37833;Laerm;23678;48.778;9.160;2023-02-03T03:03:43;38.75;31.68;49.81;;
37833;Laerm;23678;48.778;9.160;2023-02-03T03:06:20;37.33;30.89;40.03;;
37833;Laerm;23678;48.778;9.160;2023-02-03T03:09:08;37.44;32.93;43.19;;
37833;Laerm;23678;48.778;9.160;2023-02-03T03:11:32;37.37;32.93;40.33;;
37833;Laerm;23678;48.778;9.160;2023-02-03T03:14:00;37.27;31.68;39.81;;
37833;Laerm;23678;48.778;9.160;2023-02-03T03:16:28;37.34;30.89;42.71;;
37833;Laerm;23678;48.778;9.160;2023-02-03T03:19:12;37.50;32.93;40.43;;
37833;Laerm;23678;48.778;9.160;2023-02-03T03:21:41;37.41;30.89;41.22;;
37833;Laerm;23678;48.778;9.160;2023-02-03T03:24:09;37.34;30.89;40.13;;
37833;Laerm;23678;48.778;9.160;2023-02-03T03:31:29;37.35;31.68;40.62;;
37833;Laerm;23678;48.778;9.160;2023-02-03T03:33:54;38.56;31.68;50.20;;
37833;Laerm;23678;48.778;9.160;2023-02-03T03:36:30;37.37;31.68;41.30;;
37833;Laerm;23678;48.778;9.160;2023-02-03T03:39:02;37.66;32.35;41.68;;
37833;Laerm;23678;48.778;9.160;2023-02-03T03:43:58;38.60;32.93;43.54;;
37833;Laerm;23678;48.778;9.160;2023-02-03T03:46:36;38.20;32.35;44.58;;
37833;Laerm;23678;48.778;9.160;2023-02-03T03:49:04;38.18;32.93;43.94;;
37833;Laerm;23678;48.778;9.160;2023-02-03T03:51:34;38.53;31.68;49.52;;
37833;Laerm;23678;48.778;9.160;2023-02-03T03:54:02;37.61;32.35;41.46;;
37833;Laerm;23678;48.778;9.160;2023-02-03T03:56:31;37.36;30.89;39.92;;
37833;Laerm;23678;48.778;9.160;2023-02-03T03:58:58;38.59;32.35;54.63;;
37833;Laerm;23678;48.778;9.160;2023-02-03T04:01:25;38.40;32.35;47.73;;
37833;Laerm;23678;48.778;9.160;2023-02-03T04:03:53;37.50;32.35;40.98;;
37833;Laerm;23678;48.778;9.160;2023-02-03T04:06:20;37.58;32.93;41.38;;
37833;Laerm;23678;48.778;9.160;2023-02-03T04:08:45;38.23;30.89;45.72;;
37833;Laerm;23678;48.778;9.160;2023-02-03T04:11:10;37.57;32.35;41.75;;
37833;Laerm;23678;48.778;9.160;2023-02-03T04:13:56;37.44;32.35;40.23;;
37833;Laerm;23678;48.778;9.160;2023-02-03T04:16:21;39.13;31.68;53.04;;
37833;Laerm;23678;48.778;9.160;2023-02-03T04:18:46;39.64;33.44;46.47;;
37833;Laerm;23678;48.778;9.160;2023-02-03T04:21:12;39.43;32.93;54.33;;
37833;Laerm;23678;48.778;9.160;2023-02-03T04:23:37;38.11;33.44;59.92;;
37833;Laerm;23678;48.778;9.160;2023-02-03T04:26:02;37.70;33.44;45.04;;
37833;Laerm;23678;48.778;9.160;2023-02-03T04:28:28;37.78;32.93;43.05;;
37833;Laerm;23678;48.778;9.160;2023-02-03T04:30:53;39.83;33.90;54.42;;
37833;Laerm;23678;48.778;9.160;2023-02-03T04:33:18;38.52;33.44;48.21;;
37833;Laerm;23678;48.778;9.160;2023-02-03T04:35:43;38.35;32.35;50.45;;
37833;Laerm;23678;48.778;9.160;2023-02-03T04:38:09;38.14;31.68;47.95;;
37833;Laerm;23678;48.778;9.160;2023-02-03T04:40:34;39.76;34.69;63.20;;
37833;Laerm;23678;48.778;9.160;2023-02-03T04:43:04;38.24;34.31;51.46;;
37833;Laerm;23678;48.778;9.160;2023-02-03T04:45:29;38.44;34.31;42.59;;
37833;Laerm;23678;48.778;9.160;2023-02-03T04:47:54;38.13;33.90;42.00;;
37833;Laerm;23678;48.778;9.160;2023-02-03T04:50:20;40.51;33.44;55.38;;
37833;Laerm;23678;48.778;9.160;2023-02-03T04:52:45;40.46;32.93;55.21;;
37833;Laerm;23678;48.778;9.160;2023-02-03T04:55:11;38.13;33.90;44.43;;
37833;Laerm;23678;48.778;9.160;2023-02-03T04:57:36;41.62;34.69;53.84;;
37833;Laerm;23678;48.778;9.160;2023-02-03T05:00:01;38.52;32.93;44.58;;
37833;Laerm;23678;48.778;9.160;2023-02-03T05:02:27;38.96;34.31;43.14;;
37833;Laerm;23678;48.778;9.160;2023-02-03T05:04:52;38.42;34.69;42.29;;
37833;Laerm;23678;48.778;9.160;2023-02-03T05:07:17;39.39;33.90;51.95;;
37833;Laerm;23678;48.778;9.160;2023-02-03T05:09:43;38.23;33.44;43.19;;
37833;Laerm;23678;48.778;9.160;2023-02-03T05:12:08;38.36;34.69;41.55;;
37833;Laerm;23678;48.778;9.160;2023-02-03T05:14:33;38.41;34.31;45.36;;
37833;Laerm;23678;48.778;9.160;2023-02-03T05:16:58;41.49;35.04;56.26;;
37833;Laerm;23678;48.778;9.160;2023-02-03T05:19:24;39.44;35.04;43.90;;
37833;Laerm;23678;48.778;9.160;2023-02-03T05:21:49;38.51;35.04;47.65;;
37833;Laerm;23678;48.778;9.160;2023-02-03T05:24:15;43.12;35.86;55.78;;
37833;Laerm;23678;48.778;9.160;2023-02-03T05:26:40;39.30;35.36;44.11;;
37833;Laerm;23678;48.778;9.160;2023-02-03T05:29:05;39.98;35.66;60.52;;
37833;Laerm;23678;48.778;9.160;2023-02-03T05:31:31;39.69;35.04;46.13;;
37833;Laerm;23678;48.778;9.160;2023-02-03T05:33:57;40.45;35.36;54.51;;
37833;Laerm;23678;48.778;9.160;2023-02-03T05:36:23;39.72;35.04;43.86;;
37833;Laerm;23678;48.778;9.160;2023-02-03T05:38:48;40.53;35.36;51.27;;
37833;Laerm;23678;48.778;9.160;2023-02-03T05:41:13;39.31;35.04;42.98;;
37833;Laerm;23678;48.778;9.160;2023-02-03T05:43:57;40.90;35.66;49.45;;
37833;Laerm;23678;48.778;9.160;2023-02-03T05:46:23;42.38;36.20;52.55;;
37833;Laerm;23678;48.778;9.160;2023-02-03T05:48:48;40.46;35.94;49.70;;
37833;Laerm;23678;48.778;9.160;2023-02-03T05:51:13;39.40;35.66;46.89;;
37833;Laerm;23678;48.778;9.160;2023-02-03T05:53:39;40.67;35.66;52.29;;
37833;Laerm;23678;48.778;9.160;2023-02-03T05:56:04;41.83;35.36;54.56;;
37833;Laerm;23678;48.778;9.160;2023-02-03T05:58:30;42.03;35.36;56.25;;
37833;Laerm;23678;48.778;9.160;2023-02-03T06:00:55;40.56;35.94;48.23;;
37833;Laerm;23678;48.778;9.160;2023-02-03T06:03:21;39.61;35.59;46.57;;
37833;Laerm;23678;48.778;9.160;2023-02-03T06:05:46;39.22;35.66;42.16;;
37833;Laerm;23678;48.778;9.160;2023-02-03T06:08:11;38.87;35.36;42.53;;
37833;Laerm;23678;48.778;9.160;2023-02-03T06:10:37;41.15;35.66;53.69;;
37833;Laerm;23678;48.778;9.160;2023-02-03T06:13:09;42.39;36.20;53.94;;
37833;Laerm;23678;48.778;9.160;2023-02-03T06:15:35;40.52;35.36;54.90;;
37833;Laerm;23678;48.778;9.160;2023-02-03T06:18:00;40.75;35.04;49.23;;
37833;Laerm;23678;48.778;9.160;2023-02-03T06:20:25;42.87;35.94;53.15;;
37833;Laerm;23678;48.778;9.160;2023-02-03T06:22:50;41.72;36.45;53.30;;
37833;Laerm;23678;48.778;9.160;2023-02-03T06:25:16;41.43;36.69;50.52;;
37833;Laerm;23678;48.778;9.160;2023-02-03T06:27:41;40.36;35.66;48.51;;
37833;Laerm;23678;48.778;9.160;2023-02-03T06:30:07;40.79;36.45;51.26;;
37833;Laerm;23678;48.778;9.160;2023-02-03T06:32:32;41.07;36.20;48.48;;
37833;Laerm;23678;48.778;9.160;2023-02-03T06:34:57;43.72;36.69;53.63;;
37833;Laerm;23678;48.778;9.160;2023-02-03T06:37:25;41.58;36.69;53.22;;
37833;Laerm;23678;48.778;9.160;2023-02-03T06:39:50;43.49;38.05;52.54;;
37833;Laerm;23678;48.778;9.160;2023-02-03T06:42:16;43.78;38.18;54.61;;
37833;Laerm;23678;48.778;9.160;2023-02-03T06:44:42;40.61;36.91;47.42;;
37833;Laerm;23678;48.778;9.160;2023-02-03T06:47:08;44.46;38.21;59.92;;
37833;Laerm;23678;48.778;9.160;2023-02-03T06:49:33;43.89;39.58;69.09;;
37833;Laerm;23678;48.778;9.160;2023-02-03T06:51:59;41.46;38.37;56.05;;
37833;Laerm;23678;48.778;9.160;2023-02-03T06:54:24;42.72;37.70;58.64;;
37833;Laerm;23678;48.778;9.160;2023-02-03T06:56:49;44.57;40.43;54.90;;
37833;Laerm;23678;48.778;9.160;2023-02-03T06:59:15;41.88;37.52;60.84;;
37833;Laerm;23678;48.778;9.160;2023-02-03T07:01:40;42.86;37.32;54.64;;
37833;Laerm;23678;48.778;9.160;2023-02-03T07:04:05;43.65;37.52;55.88;;
37833;Laerm;23678;48.778;9.160;2023-02-03T07:06:31;42.97;36.91;52.99;;
37833;Laerm;23678;48.778;9.160;2023-02-03T07:09:02;41.11;38.05;55.20;;
37833;Laerm;23678;48.778;9.160;2023-02-03T07:11:28;41.67;37.70;52.89;;
37833;Laerm;23678;48.778;9.160;2023-02-03T07:13:53;42.89;37.70;51.57;;
37833;Laerm;23678;48.778;9.160;2023-02-03T07:16:19;41.02;37.52;54.92;;
37833;Laerm;23678;48.778;9.160;2023-02-03T07:18:44;42.66;37.35;58.36;;
37833;Laerm;23678;48.778;9.160;2023-02-03T07:21:16;41.02;36.45;59.54;;
37833;Laerm;23678;48.778;9.160;2023-02-03T07:23:41;43.29;38.21;55.10;;
37833;Laerm;23678;48.778;9.160;2023-02-03T07:26:06;43.33;37.52;55.98;;
37833;Laerm;23678;48.778;9.160;2023-02-03T07:28:32;41.61;37.88;51.37;;
37833;Laerm;23678;48.778;9.160;2023-02-03T07:30:58;42.60;37.12;53.10;;
37833;Laerm;23678;48.778;9.160;2023-02-03T07:33:24;42.95;37.32;57.36;;
37833;Laerm;23678;48.778;9.160;2023-02-03T07:35:53;43.77;35.94;58.97;;
37833;Laerm;23678;48.778;9.160;2023-02-03T07:38:18;40.80;36.20;57.47;;
37833;Laerm;23678;48.778;9.160;2023-02-03T07:40:44;43.43;36.91;57.56;;
37833;Laerm;23678;48.778;9.160;2023-02-03T07:43:09;42.93;38.37;52.72;;
37833;Laerm;23678;48.778;9.160;2023-02-03T07:45:34;42.70;37.70;53.96;;
37833;Laerm;23678;48.778;9.160;2023-02-03T07:48:00;44.34;38.67;52.42;;
37833;Laerm;23678;48.778;9.160;2023-02-03T07:50:25;45.08;38.37;54.63;;
37833;Laerm;23678;48.778;9.160;2023-02-03T07:52:50;44.77;38.81;60.23;;
37833;Laerm;23678;48.778;9.160;2023-02-03T07:55:16;42.42;38.81;55.20;;
37833;Laerm;23678;48.778;9.160;2023-02-03T07:57:41;42.06;36.45;56.52;;
37833;Laerm;23678;48.778;9.160;2023-02-03T08:00:08;42.85;36.91;56.75;;
37833;Laerm;23678;48.778;9.160;2023-02-03T08:02:34;43.26;39.46;58.28;;
37833;Laerm;23678;48.778;9.160;2023-02-03T08:05:00;42.91;37.88;58.00;;
37833;Laerm;23678;48.778;9.160;2023-02-03T08:07:25;43.98;37.12;66.38;;
37833;Laerm;23678;48.778;9.160;2023-02-03T08:09:51;42.57;37.52;54.60;;
37833;Laerm;23678;48.778;9.160;2023-02-03T08:12:16;47.88;37.88;62.99;;
37833;Laerm;23678;48.778;9.160;2023-02-03T08:14:41;43.85;37.12;61.05;;
37833;Laerm;23678;48.778;9.160;2023-02-03T08:17:07;42.31;38.95;56.77;;
37833;Laerm;23678;48.778;9.160;2023-02-03T08:19:32;42.01;38.37;61.45;;
37833;Laerm;23678;48.778;9.160;2023-02-03T08:21:58;46.01;38.05;73.76;;
37833;Laerm;23678;48.778;9.160;2023-02-03T08:24:23;44.71;39.81;65.20;;
37833;Laerm;23678;48.778;9.160;2023-02-03T08:26:49;45.02;41.89;61.01;;
37833;Laerm;23678;48.778;9.160;2023-02-03T08:29:14;44.19;41.53;51.04;;
37833;Laerm;23678;48.778;9.160;2023-02-03T08:31:40;43.85;41.14;52.46;;
37833;Laerm;23678;48.778;9.160;2023-02-03T08:34:05;43.09;37.52;57.49;;
37833;Laerm;23678;48.778;9.160;2023-02-03T08:36:31;42.46;38.37;53.72;;
37833;Laerm;23678;48.778;9.160;2023-02-03T08:38:56;42.45;38.37;55.22;;
37833;Laerm;23678;48.778;9.160;2023-02-03T08:41:21;43.41;39.46;49.34;;
37833;Laerm;23678;48.778;9.160;2023-02-03T08:43:47;45.49;42.98;54.82;;
37833;Laerm;23678;48.778;9.160;2023-02-03T08:46:12;45.07;42.88;56.25;;
37833;Laerm;23678;48.778;9.160;2023-02-03T08:48:38;45.64;42.47;57.23;;
37833;Laerm;23678;48.778;9.160;2023-02-03T08:51:10;47.32;42.22;57.39;;
37833;Laerm;23678;48.778;9.160;2023-02-03T08:53:36;48.80;42.53;74.94;;
37833;Laerm;23678;48.778;9.160;2023-02-03T08:56:09;44.35;39.70;58.56;;
37833;Laerm;23678;48.778;9.160;2023-02-03T08:58:34;43.55;36.69;53.55;;
37833;Laerm;23678;48.778;9.160;2023-02-03T09:01:10;41.00;37.32;53.16;;
37833;Laerm;23678;48.778;9.160;2023-02-03T09:03:37;43.32;38.21;59.37;;
37833;Laerm;23678;48.778;9.160;2023-02-03T09:06:02;41.45;38.67;52.79;;
37833;Laerm;23678;48.778;9.160;2023-02-03T09:08:28;40.79;37.52;49.78;;
37833;Laerm;23678;48.778;9.160;2023-02-03T09:10:53;41.98;36.91;56.62;;
37833;Laerm;23678;48.778;9.160;2023-02-03T09:13:19;41.89;36.91;56.05;;
37833;Laerm;23678;48.778;9.160;2023-02-03T09:15:45;42.44;37.70;56.54;;
37833;Laerm;23678;48.778;9.160;2023-02-03T09:18:10;42.05;37.12;52.72;;
37833;Laerm;23678;48.778;9.160;2023-02-03T09:20:35;44.87;39.46;52.56;;
37833;Laerm;23678;48.778;9.160;2023-02-03T09:23:01;46.30;43.29;51.92;;
37833;Laerm;23678;48.778;9.160;2023-02-03T09:25:26;45.76;43.49;53.21;;
37833;Laerm;23678;48.778;9.160;2023-02-03T09:27:51;47.99;42.93;67.79;;
37833;Laerm;23678;48.778;9.160;2023-02-03T09:30:17;41.60;36.69;50.06;;
37833;Laerm;23678;48.778;9.160;2023-02-03T09:32:42;41.91;38.21;51.48;;
37833;Laerm;23678;48.778;9.160;2023-02-03T09:35:07;44.71;38.67;52.72;;
37833;Laerm;23678;48.778;9.160;2023-02-03T09:37:33;43.02;37.32;53.51;;
37833;Laerm;23678;48.778;9.160;2023-02-03T09:39:58;42.53;38.05;54.20;;
37833;Laerm;23678;48.778;9.160;2023-02-03T09:47:19;41.51;37.12;48.78;;
37833;Laerm;23678;48.778;9.160;2023-02-03T09:49:50;43.47;36.91;49.59;;
37833;Laerm;23678;48.778;9.160;2023-02-03T09:52:17;40.21;36.69;47.08;;
37833;Laerm;23678;48.778;9.160;2023-02-03T09:57:24;42.05;36.20;51.87;;
37833;Laerm;23678;48.778;9.160;2023-02-03T09:59:50;41.41;36.69;53.62;;
37833;Laerm;23678;48.778;9.160;2023-02-03T10:08:02;40.70;36.45;47.79;;
37833;Laerm;23678;48.778;9.160;2023-02-03T10:10:10;41.02;35.66;49.16;;
37833;Laerm;23678;48.778;9.160;2023-02-03T10:12:50;43.86;38.67;58.99;;
37833;Laerm;23678;48.778;9.160;2023-02-03T10:15:37;46.11;37.32;61.17;;
37833;Laerm;23678;48.778;9.160;2023-02-03T10:18:11;42.74;37.12;57.21;;
37833;Laerm;23678;48.778;9.160;2023-02-03T10:20:39;43.11;36.45;53.65;;
37833;Laerm;23678;48.778;9.160;2023-02-03T10:23:09;41.74;38.67;48.28;;
37833;Laerm;23678;48.778;9.160;2023-02-03T10:25:41;42.17;37.88;48.61;;
37833;Laerm;23678;48.778;9.160;2023-02-03T10:28:23;42.63;36.20;56.27;;
37833;Laerm;23678;48.778;9.160;2023-02-03T10:30:54;42.11;35.94;53.74;;
37833;Laerm;23678;48.778;9.160;2023-02-03T10:33:22;41.27;35.94;52.09;;
37833;Laerm;23678;48.778;9.160;2023-02-03T10:35:50;41.88;36.91;51.40;;
37833;Laerm;23678;48.778;9.160;2023-02-03T10:40:53;41.19;38.21;51.00;;
37833;Laerm;23678;48.778;9.160;2023-02-03T10:43:18;48.15;39.08;61.26;;
37833;Laerm;23678;48.778;9.160;2023-02-03T10:46:03;48.32;37.70;65.37;;
37833;Laerm;23678;48.778;9.160;2023-02-03T10:48:28;46.74;37.88;57.41;;
37833;Laerm;23678;48.778;9.160;2023-02-03T10:50:54;45.33;42.09;56.28;;
37833;Laerm;23678;48.778;9.160;2023-02-03T10:53:21;44.60;42.16;56.10;;
37833;Laerm;23678;48.778;9.160;2023-02-03T10:55:49;43.13;36.69;59.20;;
37833;Laerm;23678;48.778;9.160;2023-02-03T10:58:24;42.57;38.37;55.06;;
37833;Laerm;23678;48.778;9.160;2023-02-03T11:01:10;40.75;36.45;48.63;;
37833;Laerm;23678;48.778;9.160;2023-02-03T11:03:36;45.31;37.88;55.30;;
37833;Laerm;23678;48.778;9.160;2023-02-03T11:06:07;45.10;36.20;57.85;;
37833;Laerm;23678;48.778;9.160;2023-02-03T11:08:33;42.50;35.66;61.56;;
37833;Laerm;23678;48.778;9.160;2023-02-03T11:11:03;39.93;35.04;47.44;;
37833;Laerm;23678;48.778;9.160;2023-02-03T11:13:29;41.94;35.01;53.48;;
37833;Laerm;23678;48.778;9.160;2023-02-03T11:16:10;42.13;35.94;53.08;;
37833;Laerm;23678;48.778;9.160;2023-02-03T11:21:07;42.68;36.69;55.77;;
37833;Laerm;23678;48.778;9.160;2023-02-03T11:23:33;40.06;36.69;51.21;;
37833;Laerm;23678;48.778;9.160;2023-02-03T11:25:58;41.85;37.32;52.72;;
37833;Laerm;23678;48.778;9.160;2023-02-03T11:28:24;40.45;35.66;47.55;;
37833;Laerm;23678;48.778;9.160;2023-02-03T11:30:55;41.45;37.32;47.93;;
37833;Laerm;23678;48.778;9.160;2023-02-03T11:33:36;41.97;36.20;54.11;;
37833;Laerm;23678;48.778;9.160;2023-02-03T11:36:08;42.75;37.32;52.53;;
37833;Laerm;23678;48.778;9.160;2023-02-03T11:38:35;41.08;36.45;49.59;;
37833;Laerm;23678;48.778;9.160;2023-02-03T11:41:01;43.53;35.94;52.53;;
37833;Laerm;23678;48.778;9.160;2023-02-03T11:43:27;42.18;36.69;53.19;;
37833;Laerm;23678;48.778;9.160;2023-02-03T11:46:04;40.47;36.20;48.45;;
37833;Laerm;23678;48.778;9.160;2023-02-03T12:09:08;43.58;38.37;53.35;;
37833;Laerm;23678;48.778;9.160;2023-02-03T12:29:30;40.65;35.94;52.68;;
37833;Laerm;23678;48.778;9.160;2023-02-03T12:37:55;42.97;37.52;54.53;;
37833;Laerm;23678;48.778;9.160;2023-02-03T12:39:51;42.22;36.69;51.35;;
37833;Laerm;23678;48.778;9.160;2023-02-03T12:42:22;41.03;36.91;49.44;;
37833;Laerm;23678;48.778;9.160;2023-02-03T12:47:33;42.07;36.45;53.55;;
37833;Laerm;23678;48.778;9.160;2023-02-03T12:50:22;41.10;36.20;49.49;;
37833;Laerm;23678;48.778;9.160;2023-02-03T12:57:43;41.91;36.91;52.63;;
37833;Laerm;23678;48.778;9.160;2023-02-03T13:05:23;40.60;35.04;54.71;;
37833;Laerm;23678;48.778;9.160;2023-02-03T13:10:44;42.55;38.67;56.83;;
37833;Laerm;23678;48.778;9.160;2023-02-03T13:13:47;42.88;38.52;52.27;;
37833;Laerm;23678;48.778;9.160;2023-02-03T13:16:05;43.79;40.43;56.89;;
37833;Laerm;23678;48.778;9.160;2023-02-03T13:18:36;45.08;37.52;65.67;;
37833;Laerm;23678;48.778;9.160;2023-02-03T13:21:02;41.95;37.70;50.15;;
37833;Laerm;23678;48.778;9.160;2023-02-03T13:23:28;43.17;37.32;56.23;;
37833;Laerm;23678;48.778;9.160;2023-02-03T13:25:58;41.15;36.91;50.23;;
37833;Laerm;23678;48.778;9.160;2023-02-03T13:44:35;40.69;35.66;52.51;;
37833;Laerm;23678;48.778;9.160;2023-02-03T13:47:02;42.08;35.36;53.32;;
37833;Laerm;23678;48.778;9.160;2023-02-03T13:49:32;40.45;36.10;49.92;;
37833;Laerm;23678;48.778;9.160;2023-02-03T13:51:58;40.28;35.36;48.18;;
37833;Laerm;23678;48.778;9.160;2023-02-03T13:54:29;40.36;33.90;56.97;;
37833;Laerm;23678;48.778;9.160;2023-02-03T13:56:57;40.96;35.66;48.98;;
37833;Laerm;23678;48.778;9.160;2023-02-03T14:10:04;41.14;35.36;50.20;;
37833;Laerm;23678;48.778;9.160;2023-02-03T14:12:32;41.99;36.20;47.95;;
37833;Laerm;23678;48.778;9.160;2023-02-03T14:15:00;40.66;36.10;45.60;;
37833;Laerm;23678;48.778;9.160;2023-02-03T14:19:58;41.76;35.66;49.67;;
37833;Laerm;23678;48.778;9.160;2023-02-03T14:22:23;40.98;35.66;51.89;;
37833;Laerm;23678;48.778;9.160;2023-02-03T14:24:48;40.03;35.86;51.95;;
37833;Laerm;23678;48.778;9.160;2023-02-03T14:27:16;40.72;35.36;52.37;;
37833;Laerm;23678;48.778;9.160;2023-02-03T14:29:42;41.16;33.55;49.36;;
37833;Laerm;23678;48.778;9.160;2023-02-03T14:32:08;41.80;35.36;54.73;;
37833;Laerm;23678;48.778;9.160;2023-02-03T14:37:24;40.13;35.66;51.41;;
37833;Laerm;23678;48.778;9.160;2023-02-03T15:00:43;42.81;36.20;54.95;;
37833;Laerm;23678;48.778;9.160;2023-02-03T15:05:52;39.97;34.31;46.28;;
37833;Laerm;23678;48.778;9.160;2023-02-03T15:11:00;40.45;35.04;51.45;;
37833;Laerm;23678;48.778;9.160;2023-02-03T15:13:50;41.84;36.10;49.73;;
37833;Laerm;23678;48.778;9.160;2023-02-03T15:16:34;41.12;35.04;57.46;;
37833;Laerm;23678;48.778;9.160;2023-02-03T15:19:13;41.05;35.66;51.22;;
37833;Laerm;23678;48.778;9.160;2023-02-03T15:21:40;40.70;34.31;55.39;;
37833;Laerm;23678;48.778;9.160;2023-02-03T15:24:10;41.99;35.04;55.63;;
37833;Laerm;23678;48.778;9.160;2023-02-03T15:26:43;40.69;35.36;55.88;;
37833;Laerm;23678;48.778;9.160;2023-02-03T15:29:15;40.00;35.04;46.38;;
37833;Laerm;23678;48.778;9.160;2023-02-03T15:31:42;40.89;35.36;51.06;;
37833;Laerm;23678;48.778;9.160;2023-02-03T15:34:55;40.51;35.66;47.44;;
37833;Laerm;23678;48.778;9.160;2023-02-03T15:36:56;39.79;35.04;47.07;;
37833;Laerm;23678;48.778;9.160;2023-02-03T15:39:35;41.21;34.69;53.69;;
37833;Laerm;23678;48.778;9.160;2023-02-03T15:42:02;40.77;35.66;55.16;;
37833;Laerm;23678;48.778;9.160;2023-02-03T15:44:34;40.27;35.66;53.48;;
37833;Laerm;23678;48.778;9.160;2023-02-03T15:47:03;40.25;35.04;48.92;;
37833;Laerm;23678;48.778;9.160;2023-02-03T15:49:37;40.84;35.04;54.08;;
37833;Laerm;23678;48.778;9.160;2023-02-03T15:52:10;39.75;34.69;46.22;;
37833;Laerm;23678;48.778;9.160;2023-02-03T15:54:40;40.43;35.36;59.01;;
37833;Laerm;23678;48.778;9.160;2023-02-03T15:57:08;41.46;36.69;50.56;;
37833;Laerm;23678;48.778;9.160;2023-02-03T15:59:37;41.12;36.20;50.52;;
37833;Laerm;23678;48.778;9.160;2023-02-03T16:02:17;41.72;36.45;54.68;;
37833;Laerm;23678;48.778;9.160;2023-02-03T16:04:44;43.84;35.86;55.99;;
37833;Laerm;23678;48.778;9.160;2023-02-03T16:07:22;41.21;35.66;51.24;;
37833;Laerm;23678;48.778;9.160;2023-02-03T16:10:22;39.93;35.04;46.78;;
37833;Laerm;23678;48.778;9.160;2023-02-03T16:15:39;40.86;36.20;48.15;;
37833;Laerm;23678;48.778;9.160;2023-02-03T16:18:08;41.35;35.31;50.15;;
37833;Laerm;23678;48.778;9.160;2023-02-03T16:20:46;40.59;35.31;62.72;;
37833;Laerm;23678;48.778;9.160;2023-02-03T16:23:18;42.60;35.36;54.63;;
37833;Laerm;23678;48.778;9.160;2023-02-03T16:26:00;43.30;36.45;59.12;;
37833;Laerm;23678;48.778;9.160;2023-02-03T16:28:25;40.74;35.66;47.81;;
37833;Laerm;23678;48.778;9.160;2023-02-03T16:31:11;41.56;35.66;47.12;;
37833;Laerm;23678;48.778;9.160;2023-02-03T16:33:56;40.40;35.36;47.63;;
37833;Laerm;23678;48.778;9.160;2023-02-03T16:36:40;41.73;35.94;60.76;;
37833;Laerm;23678;48.778;9.160;2023-02-03T16:39:25;40.17;34.31;57.49;;